Time;durP1;ratioP1;P1;durP2;ratioP2;P2;SDS_P1;SDS_P2;PMS_P1;PMS_P2;Temp;Humidity;BMP_temperature;BMP_pressure;BME280_temperature;BME280_humidity;BME280_pressure;Samples;Min_cycle;Max_cycle;Signal;HPM_P1;HPM_P2
2022/10/20 00:05:28;;;;;;;15.93;8.67;;;14.60;99.90;;;;;;21000053;28;20367;-77
2022/10/20 00:15:28;;;;;;;16.23;8.13;;;14.60;99.90;;;;;;21078885;28;20112;-78
2022/10/20 00:25:29;;;;;;;16.67;8.47;;;14.60;99.90;;;;;;21085497;28;20036;-77
2022/10/20 00:35:31;;;;;;;23.97;8.87;;;14.60;99.90;;;;;;21083812;28;20030;-77
2022/10/20 00:45:32;;;;;;;22.05;10.00;;;14.50;99.90;;;;;;21082980;28;20493;-77
2022/10/20 00:55:36;;;;;;;18.27;9.50;;;14.50;99.90;;;;;;21094152;28;20085;-77
2022/10/20 01:05:37;;;;;;;18.27;10.07;;;14.40;99.90;;;;;;21102116;28;20036;-77
2022/10/20 01:16:01;;;;;;;20.50;10.57;;;14.40;99.90;;;;;;21139208;28;20066;-77
2022/10/20 01:26:40;;;;;;;17.83;9.38;;;14.40;99.90;;;;;;21150031;28;20035;-77
2022/10/20 01:36:55;;;;;;;17.90;10.18;;;14.40;99.90;;;;;;21184548;28;20020;-78
2022/10/20 01:46:57;;;;;;;29.73;9.57;;;14.40;99.90;;;;;;21185348;28;20035;-78
2022/10/20 01:57:29;;;;;;;24.23;11.13;;;14.40;99.90;;;;;;21165413;28;20107;-77
2022/10/20 02:07:32;;;;;;;25.20;9.90;;;14.30;99.90;;;;;;21146842;28;20542;-77
2022/10/20 02:17:36;;;;;;;19.13;9.70;;;14.30;99.90;;;;;;21182222;28;20281;-77
2022/10/20 02:27:40;;;;;;;18.05;10.02;;;14.30;99.90;;;;;;21163582;28;20509;-78
2022/10/20 02:37:40;;;;;;;18.73;10.32;;;14.20;99.90;;;;;;21162381;28;20035;-77
2022/10/20 02:47:41;;;;;;;17.90;10.53;;;14.20;99.90;;;;;;21179276;28;20046;-77
2022/10/20 02:57:42;;;;;;;21.83;9.83;;;14.20;99.90;;;;;;21161493;28;20036;-77
2022/10/20 03:07:43;;;;;;;20.03;10.60;;;14.20;99.90;;;;;;21178275;28;20381;-77
2022/10/20 03:17:43;;;;;;;16.70;10.20;;;14.10;99.90;;;;;;21177205;28;20027;-78
2022/10/20 03:27:44;;;;;;;18.20;9.87;;;14.10;99.90;;;;;;21158391;28;20035;-77
2022/10/20 03:37:45;;;;;;;21.17;10.80;;;14.10;99.90;;;;;;21154278;28;20034;-78
2022/10/20 03:47:46;;;;;;;16.90;9.07;;;14.00;99.90;;;;;;21134057;28;20059;-78
2022/10/20 03:57:46;;;;;;;24.13;11.13;;;14.00;99.90;;;;;;21084983;28;20020;-77
2022/10/20 04:07:47;;;;;;;26.07;11.43;;;14.00;99.90;;;;;;21070284;28;20101;-78
2022/10/20 04:17:48;;;;;;;20.47;10.47;;;14.00;99.90;;;;;;21081039;28;20028;-77
2022/10/20 04:27:49;;;;;;;23.10;10.13;;;14.00;99.90;;;;;;21048214;22;20044;-77
2022/10/20 04:37:49;;;;;;;28.20;10.67;;;14.00;99.90;;;;;;20969234;28;20044;-77
2022/10/20 04:47:50;;;;;;;29.63;10.03;;;14.00;99.90;;;;;;20974293;28;20449;-77
2022/10/20 04:57:51;;;;;;;24.30;11.57;;;14.00;99.90;;;;;;20991760;28;20090;-77
2022/10/20 05:07:52;;;;;;;18.90;10.93;;;14.00;99.90;;;;;;20973389;28;20040;-76
2022/10/20 05:17:52;;;;;;;26.73;11.87;;;14.00;99.90;;;;;;20990977;28;20041;-76
2022/10/20 05:27:53;;;;;;;26.03;12.03;;;13.90;99.90;;;;;;20990381;28;20444;-76
2022/10/20 05:37:55;;;;;;;21.70;11.67;;;14.00;99.90;;;;;;20994374;28;20051;-78
2022/10/20 05:47:55;;;;;;;23.90;11.63;;;14.00;99.90;;;;;;21005053;28;20115;-78
2022/10/20 05:57:56;;;;;;;23.70;11.13;;;13.90;99.90;;;;;;20967968;28;20510;-78
2022/10/20 06:07:57;;;;;;;19.57;10.57;;;14.00;99.90;;;;;;21001604;28;20031;-77
2022/10/20 06:17:58;;;;;;;25.77;10.03;;;14.00;99.90;;;;;;20951339;28;20125;-78
2022/10/20 06:27:58;;;;;;;20.13;11.27;;;14.10;99.90;;;;;;20955865;28;20486;-79
2022/10/20 06:37:59;;;;;;;35.20;12.27;;;14.20;99.90;;;;;;20918744;28;20029;-78
2022/10/20 06:48:00;;;;;;;22.60;12.40;;;14.20;99.90;;;;;;20916893;28;20029;-77
2022/10/20 06:58:01;;;;;;;25.13;13.03;;;14.30;99.90;;;;;;20915923;28;20083;-77
2022/10/20 07:08:01;;;;;;;31.00;12.83;;;14.40;99.90;;;;;;20914984;28;20483;-77
2022/10/20 07:18:02;;;;;;;27.83;12.87;;;14.60;99.90;;;;;;20914361;28;20043;-77
2022/10/20 07:28:03;;;;;;;37.23;20.47;;;14.80;99.90;;;;;;20915135;28;20506;-77
2022/10/20 07:38:04;;;;;;;27.67;12.60;;;15.00;99.90;;;;;;20915327;28;20075;-76
2022/10/20 07:48:06;;;;;;;31.33;13.07;;;14.80;99.90;;;;;;20913337;28;20064;-77
2022/10/20 07:58:06;;;;;;;25.02;12.07;;;14.80;99.90;;;;;;20894606;28;20028;-77
2022/10/20 08:08:07;;;;;;;31.83;13.17;;;15.00;99.90;;;;;;20911067;28;20060;-76
2022/10/20 08:18:08;;;;;;;18.40;11.30;;;15.40;99.90;;;;;;20910248;28;20422;-77
2022/10/20 08:28:08;;;;;;;30.53;12.23;;;15.80;99.90;;;;;;20910363;28;20036;-76
2022/10/20 08:38:09;;;;;;;27.43;12.03;;;15.90;99.90;;;;;;20910316;28;20078;-76
2022/10/20 08:48:26;;;;;;;22.33;12.03;;;16.00;99.90;;;;;;20974470;28;20033;-77
2022/10/20 08:58:27;;;;;;;25.75;12.40;;;16.10;99.90;;;;;;20990755;28;20039;-77
2022/10/20 09:08:29;;;;;;;23.37;11.73;;;16.00;99.90;;;;;;20976440;28;20067;-77
2022/10/20 09:18:31;;;;;;;23.65;12.60;;;16.80;99.90;;;;;;21002786;28;20090;-76
2022/10/20 09:28:32;;;;;;;26.20;11.95;;;18.50;99.90;;;;;;20987924;28;20499;-78
2022/10/20 09:38:34;;;;;;;22.13;12.53;;;20.00;99.90;;;;;;21004551;28;20066;-77
2022/10/20 09:48:41;;;;;;;24.98;12.55;;;20.70;99.90;;;;;;21005066;28;20028;-78
2022/10/20 09:58:46;;;;;;;24.58;12.88;;;20.10;99.90;;;;;;21004909;28;20039;-77
2022/10/20 10:08:47;;;;;;;24.48;10.93;;;19.40;99.90;;;;;;21004094;28;20025;-78
2022/10/20 10:19:00;;;;;;;22.70;12.00;;;19.40;99.90;;;;;;20973751;28;20025;-76
2022/10/20 10:29:02;;;;;;;26.98;13.73;;;19.00;99.90;;;;;;20980219;22;20060;-76
2022/10/20 10:39:03;;;;;;;;;;;18.30;99.90;;;;;;21082580;28;20036;-77
2022/10/20 10:49:46;;;;;;;33.83;14.85;;;17.30;99.90;;;;;;21083681;28;19937;-76
2022/10/20 10:59:50;;;;;;;29.50;14.80;;;17.20;99.90;;;;;;21047136;28;20047;-76
2022/10/20 11:10:03;;;;;;;31.35;14.00;;;17.30;99.90;;;;;;21080671;28;20445;-76
2022/10/20 11:20:26;;;;;;;36.75;15.43;;;17.90;99.90;;;;;;21078601;28;20060;-77
2022/10/20 11:30:29;;;;;;;35.40;14.90;;;18.50;99.90;;;;;;21078493;28;20456;-77
2022/10/20 11:40:37;;;;;;;35.13;17.27;;;18.70;99.90;;;;;;21078821;28;20024;-76
2022/10/20 11:50:39;;;;;;;36.10;13.73;;;18.40;99.90;;;;;;21078026;28;20056;-77
2022/10/20 12:00:50;;;;;;;33.53;15.73;;;18.50;99.90;;;;;;21077290;28;20032;-76
2022/10/20 12:11:16;;;;;;;33.72;15.27;;;17.90;99.90;;;;;;21076933;28;20032;-77
2022/10/20 12:21:56;;;;;;;35.40;16.02;;;17.50;99.90;;;;;;21075799;28;20490;-77
2022/10/20 12:32:36;;;;;;;34.55;16.10;;;17.50;99.90;;;;;;21074257;28;20094;-76
2022/10/20 12:42:56;;;;;;;27.73;13.57;;;17.70;99.90;;;;;;21074174;28;20035;-77
2022/10/20 12:53:12;;;;;;;32.15;14.25;;;17.60;99.90;;;;;;21071662;28;20053;-76
2022/10/20 13:03:51;;;;;;;28.95;14.48;;;18.00;99.90;;;;;;21072698;28;20398;-77
2022/10/20 13:14:10;;;;;;;37.92;15.90;;;18.00;99.90;;;;;;20998393;28;20401;-76
2022/10/20 13:24:39;;;;;;;34.70;14.85;;;17.50;99.90;;;;;;21072867;28;20028;-76
2022/10/20 13:34:46;;;;;;;26.02;14.95;;;17.50;99.90;;;;;;21010585;28;20032;-75
2022/10/20 13:45:20;;;;;;;28.08;13.07;;;17.70;99.90;;;;;;21071548;28;20064;-76
2022/10/20 13:55:28;;;;;;;53.55;12.98;;;17.90;99.90;;;;;;21070915;28;20078;-76
2022/10/20 14:05:36;;;;;;;24.20;13.25;;;18.00;99.90;;;;;;21013470;28;20025;-75
2022/10/20 14:15:37;;;;;;;28.08;12.88;;;17.90;99.90;;;;;;21000603;28;20039;-76
2022/10/20 14:25:39;;;;;;;32.37;14.83;;;17.80;99.90;;;;;;21031128;28;20020;-76
2022/10/20 14:35:48;;;;;;;32.28;14.02;;;17.60;99.90;;;;;;21009721;28;20037;-76
2022/10/20 14:46:00;;;;;;;37.38;15.43;;;17.50;99.90;;;;;;20964844;28;20041;-76
2022/10/20 14:56:02;;;;;;;39.42;16.42;;;17.40;99.90;;;;;;20955408;28;20540;-75
2022/10/20 15:06:03;;;;;;;;;;;17.30;99.90;;;;;;20954593;28;20053;-76
2022/10/20 15:16:03;;;;;;;41.80;15.98;;;17.10;99.90;;;;;;20944859;28;19921;-75
2022/10/20 15:26:09;;;;;;;31.73;15.73;;;17.00;99.90;;;;;;20947053;28;20116;-76
2022/10/20 15:36:20;;;;;;;31.08;15.68;;;17.00;99.90;;;;;;20947427;28;20513;-75
2022/10/20 15:46:21;;;;;;;30.00;14.95;;;17.00;99.90;;;;;;21066632;28;20057;-76
2022/10/20 15:56:22;;;;;;;29.90;15.67;;;16.90;99.90;;;;;;20910710;28;20033;-76
2022/10/20 16:06:23;;;;;;;39.00;17.08;;;16.80;99.90;;;;;;20910490;28;20100;-75
2022/10/20 16:16:24;;;;;;;32.72;16.27;;;16.50;99.90;;;;;;20995173;28;20025;-75
2022/10/20 16:26:25;;;;;;;38.20;16.33;;;16.40;99.90;;;;;;20966913;22;20039;-77
2022/10/20 16:36:26;;;;;;;35.73;15.47;;;16.20;99.90;;;;;;21167713;28;20035;-77
2022/10/20 16:46:27;;;;;;;36.27;15.40;;;16.20;99.90;;;;;;21172547;27;20104;-77
2022/10/20 16:56:28;;;;;;;42.73;15.30;;;16.20;99.90;;;;;;21253580;27;20477;-78
2022/10/20 17:06:29;;;;;;;41.57;16.13;;;16.10;99.90;;;;;;21248808;28;20034;-78
2022/10/20 17:16:33;;;;;;;39.80;17.63;;;16.00;99.90;;;;;;21156352;28;20479;-78
2022/10/20 17:26:33;;;;;;;31.17;16.65;;;15.90;99.90;;;;;;21162896;28;20032;-77
2022/10/20 17:36:34;;;;;;;32.63;16.33;;;15.90;99.90;;;;;;21160176;28;20486;-77
2022/10/20 17:46:35;;;;;;;41.17;19.57;;;16.00;99.90;;;;;;21139635;28;20028;-79
2022/10/20 17:56:38;;;;;;;47.47;20.13;;;15.60;99.90;;;;;;21140356;28;20039;-78
2022/10/20 18:06:41;;;;;;;34.92;18.73;;;15.50;99.90;;;;;;21147549;28;20024;-78
2022/10/20 18:16:42;;;;;;;43.30;18.83;;;15.60;99.90;;;;;;21121116;28;20110;-80
2022/10/20 18:26:43;;;;;;;;;;;15.50;99.90;;;;;;21149488;28;20038;-79
2022/10/20 18:36:44;;;;;;;46.28;21.25;;;15.50;99.90;;;;;;21148411;28;19911;-80
2022/10/20 18:46:46;;;;;;;48.27;21.33;;;15.40;99.90;;;;;;21145305;28;20035;-79
2022/10/20 18:56:46;;;;;;;44.70;21.52;;;15.20;99.90;;;;;;21129562;28;20032;-78
2022/10/20 19:06:48;;;;;;;49.50;24.00;;;15.10;99.90;;;;;;21142352;28;20025;-78
2022/10/20 19:16:49;;;;;;;56.67;23.40;;;15.00;99.90;;;;;;21137490;28;20096;-78
2022/10/20 19:26:53;;;;;;;48.53;22.83;;;15.00;99.90;;;;;;21143094;28;20030;-78
2022/10/20 19:36:54;;;;;;;50.38;23.17;;;15.00;99.90;;;;;;21136626;28;20030;-78
2022/10/20 19:46:55;;;;;;;52.30;23.80;;;14.90;99.90;;;;;;21120906;28;20032;-78
2022/10/20 19:56:56;;;;;;;52.40;25.07;;;14.90;99.90;;;;;;21131365;28;20024;-79
2022/10/20 20:06:57;;;;;;;61.27;27.37;;;14.80;99.90;;;;;;21136017;28;20024;-78
2022/10/20 20:16:58;;;;;;;54.23;24.80;;;14.80;99.90;;;;;;21131208;28;20032;-78
2022/10/20 20:26:58;;;;;;;55.60;26.10;;;14.80;99.90;;;;;;21132539;28;20059;-77
2022/10/20 20:36:59;;;;;;;54.83;26.57;;;14.70;99.90;;;;;;21162851;28;20059;-78
2022/10/20 20:47:00;;;;;;;57.60;25.20;;;14.70;99.90;;;;;;21179077;28;20055;-78
2022/10/20 20:57:01;;;;;;;53.63;26.20;;;14.70;99.90;;;;;;21182011;28;20116;-79
2022/10/20 21:07:02;;;;;;;56.77;25.47;;;14.70;99.90;;;;;;21179743;28;20393;-79
2022/10/20 21:17:02;;;;;;;57.73;26.97;;;14.70;99.90;;;;;;21196397;28;20089;-78
2022/10/20 21:27:03;;;;;;;58.10;25.10;;;14.60;99.90;;;;;;21191689;28;20036;-78
2022/10/20 21:37:04;;;;;;;57.77;24.27;;;14.70;99.90;;;;;;21191123;28;20024;-79
2022/10/20 21:47:05;;;;;;;62.77;27.77;;;14.60;99.90;;;;;;21188283;28;20031;-78
2022/10/20 21:57:05;;;;;;;56.53;26.10;;;14.60;99.90;;;;;;21186226;28;20035;-78
2022/10/20 22:07:06;;;;;;;72.50;26.27;;;14.60;99.90;;;;;;21185839;28;20085;-77
2022/10/20 22:17:07;;;;;;;53.20;25.43;;;14.60;99.90;;;;;;21182007;28;20042;-78
2022/10/20 22:27:08;;;;;;;55.13;25.30;;;14.60;99.90;;;;;;21170425;28;20051;-78
2022/10/20 22:37:09;;;;;;;68.57;25.60;;;14.50;99.90;;;;;;21198197;28;20032;-80
2022/10/20 22:47:09;;;;;;;53.03;23.77;;;14.60;99.90;;;;;;21195420;28;20032;-79
2022/10/20 22:57:10;;;;;;;63.10;25.70;;;14.50;99.90;;;;;;21178979;28;20032;-80
2022/10/20 23:07:11;;;;;;;59.27;24.73;;;14.40;99.90;;;;;;21194895;28;20085;-80
2022/10/20 23:17:11;;;;;;;61.53;26.00;;;14.40;99.90;;;;;;21194752;28;20489;-80
2022/10/20 23:27:12;;;;;;;49.73;23.83;;;14.40;99.90;;;;;;21174054;28;20035;-78
2022/10/20 23:37:13;;;;;;;48.30;23.87;;;14.40;99.90;;;;;;21193569;28;20031;-80
2022/10/20 23:47:14;;;;;;;60.53;24.93;;;14.40;99.90;;;;;;21191986;28;20019;-80
2022/10/20 23:57:14;;;;;;;58.57;24.20;;;14.40;99.90;;;;;;21189896;28;20058;-79
